createdAt,value
2018-08-16T00:01:16.725Z,4.10
2018-08-16T00:03:44.455Z,4.30
2018-08-16T00:06:12.136Z,4.33
2018-08-16T00:08:39.748Z,4.00
2018-08-16T00:11:07.387Z,4.37
2018-08-16T00:13:35.060Z,3.98
2018-08-16T00:16:02.768Z,3.53
2018-08-16T00:18:30.547Z,4.60
2018-08-16T00:20:58.176Z,4.20
2018-08-16T00:23:25.810Z,4.40
2018-08-16T00:25:53.459Z,4.47
2018-08-16T00:28:21.136Z,5.15
2018-08-16T00:30:48.741Z,4.57
2018-08-16T00:33:16.429Z,4.43
2018-08-16T00:35:44.137Z,4.70
2018-08-16T00:38:11.861Z,4.37
2018-08-16T00:40:39.511Z,4.25
2018-08-16T00:43:07.271Z,4.03
2018-08-16T00:45:34.967Z,4.73
2018-08-16T00:48:02.573Z,4.77
2018-08-16T00:50:30.288Z,4.30
2018-08-16T00:52:57.917Z,4.20
2018-08-16T00:55:25.549Z,4.57
2018-08-16T00:57:53.280Z,4.12
2018-08-16T01:00:20.923Z,4.25
2018-08-16T01:02:48.521Z,4.60
2018-08-16T01:05:16.169Z,4.23
2018-08-16T01:07:43.819Z,4.40
2018-08-16T01:10:12.787Z,4.30
2018-08-16T01:12:41.092Z,4.27
2018-08-16T01:15:10.349Z,4.00
2018-08-16T01:17:37.990Z,4.77
2018-08-16T01:20:05.959Z,3.97
2018-08-16T01:22:33.614Z,4.40
2018-08-16T01:25:01.252Z,4.80
2018-08-16T01:27:28.910Z,4.50
2018-08-16T01:29:56.528Z,4.20
2018-08-16T01:32:24.200Z,4.27
2018-08-16T01:34:51.813Z,4.90
2018-08-16T01:37:19.460Z,4.53
2018-08-16T01:39:47.070Z,4.10
2018-08-16T01:42:14.782Z,4.53
2018-08-16T01:44:42.385Z,4.50
2018-08-16T01:47:09.965Z,4.43
2018-08-16T01:49:38.196Z,4.17
2018-08-16T01:52:06.199Z,4.50
2018-08-16T01:54:33.963Z,4.47
2018-08-16T01:57:02.112Z,4.30
2018-08-16T01:59:29.759Z,4.50
2018-08-16T02:01:57.412Z,3.77
2018-08-16T02:04:25.086Z,4.33
2018-08-16T02:06:53.123Z,5.10
2018-08-16T02:09:21.634Z,4.63
2018-08-16T02:11:49.407Z,4.75
2018-08-16T02:14:17.423Z,4.58
2018-08-16T02:16:45.103Z,4.60
2018-08-16T02:19:12.805Z,4.83
2018-08-16T02:21:40.493Z,5.10
2018-08-16T02:24:08.238Z,4.92
2018-08-16T02:26:35.972Z,4.83
2018-08-16T02:29:03.716Z,5.00
2018-08-16T02:31:31.651Z,5.20
2018-08-16T02:33:59.326Z,5.10
2018-08-16T02:36:27.027Z,4.70
2018-08-16T02:38:55.109Z,4.67
2018-08-16T02:41:22.804Z,5.00
2018-08-16T02:43:50.452Z,4.90
2018-08-16T02:46:18.104Z,5.10
2018-08-16T02:48:45.763Z,4.83
2018-08-16T02:51:13.652Z,4.47
2018-08-16T02:53:41.349Z,5.17
2018-08-16T02:56:09.011Z,5.70
2018-08-16T02:58:36.626Z,5.10
2018-08-16T03:01:04.323Z,5.10
2018-08-16T03:03:32.271Z,4.80
2018-08-16T03:05:59.954Z,5.03
2018-08-16T03:08:27.613Z,5.28
2018-08-16T03:10:55.268Z,4.12
2018-08-16T03:13:23.044Z,4.83
2018-08-16T03:15:50.636Z,5.60
2018-08-16T03:18:18.348Z,4.80
2018-08-16T03:20:45.964Z,4.90
2018-08-16T03:23:13.609Z,4.93
2018-08-16T03:25:41.335Z,4.65
2018-08-16T03:28:08.967Z,5.23
2018-08-16T03:30:36.614Z,5.70
2018-08-16T03:33:04.271Z,5.00
2018-08-16T03:35:31.962Z,4.97
2018-08-16T03:37:59.588Z,5.45
2018-08-16T03:40:27.260Z,5.23
2018-08-16T03:42:54.862Z,4.97
2018-08-16T03:45:22.611Z,5.40
2018-08-16T03:47:50.217Z,5.13
2018-08-16T03:50:17.886Z,5.12
2018-08-16T03:52:45.650Z,5.12
2018-08-16T03:55:13.283Z,4.92
2018-08-16T03:57:41.099Z,4.83
2018-08-16T04:00:08.766Z,5.37
2018-08-16T04:02:36.429Z,4.73
2018-08-16T04:05:04.504Z,5.50
2018-08-16T04:07:32.154Z,5.20
2018-08-16T04:09:59.787Z,5.97
2018-08-16T04:12:33.574Z,5.60
2018-08-16T04:15:01.234Z,5.43
2018-08-16T04:17:36.061Z,5.00
2018-08-16T04:20:04.407Z,5.17
2018-08-16T04:22:32.226Z,5.80
2018-08-16T04:24:59.852Z,5.47
2018-08-16T04:27:27.866Z,5.30
2018-08-16T04:29:55.695Z,5.87
2018-08-16T04:32:23.313Z,5.17
2018-08-16T04:34:50.949Z,5.33
2018-08-16T04:37:18.598Z,5.28
2018-08-16T04:39:46.258Z,5.37
2018-08-16T04:42:14.047Z,5.20
2018-08-16T04:44:41.975Z,5.50
2018-08-16T04:47:09.630Z,5.10
2018-08-16T04:49:37.319Z,5.43
2018-08-16T04:52:05.290Z,5.53
2018-08-16T04:54:33.031Z,5.80
2018-08-16T04:57:00.853Z,5.77
2018-08-16T04:59:28.431Z,5.53
2018-08-16T05:01:56.038Z,5.83
2018-08-16T05:04:23.747Z,5.63
2018-08-16T05:06:52.503Z,5.70
2018-08-16T05:09:20.232Z,5.47
2018-08-16T05:11:47.856Z,6.08
2018-08-16T05:14:15.481Z,6.63
2018-08-16T05:16:43.148Z,5.83
2018-08-16T05:19:10.835Z,6.97
2018-08-16T05:21:38.476Z,5.97
2018-08-16T05:24:06.164Z,6.17
2018-08-16T05:26:33.832Z,6.05
2018-08-16T05:29:01.445Z,6.35
2018-08-16T05:31:29.205Z,6.10
2018-08-16T05:33:56.900Z,6.90
2018-08-16T05:36:24.612Z,7.00
2018-08-16T05:38:52.220Z,6.73
2018-08-16T05:41:20.013Z,30.00
2018-08-16T05:43:47.864Z,38.13
2018-08-16T05:46:15.570Z,9.93
2018-08-16T05:48:43.244Z,9.43
2018-08-16T05:51:10.867Z,7.33
2018-08-16T05:53:38.584Z,6.43
2018-08-16T05:56:06.395Z,6.90
2018-08-16T05:58:34.136Z,6.75
2018-08-16T06:01:01.816Z,6.67
2018-08-16T06:03:29.473Z,6.97
2018-08-16T06:05:57.085Z,6.63
2018-08-16T06:08:24.730Z,6.03
2018-08-16T06:10:52.403Z,6.83
2018-08-16T06:13:20.165Z,6.40
2018-08-16T06:15:47.780Z,6.43
2018-08-16T06:18:15.560Z,5.87
2018-08-16T06:20:43.254Z,5.58
2018-08-16T06:23:10.900Z,5.75
2018-08-16T06:25:38.603Z,4.87
2018-08-16T06:28:06.572Z,5.20
2018-08-16T06:30:34.247Z,4.60
2018-08-16T06:33:01.912Z,4.80
2018-08-16T06:35:29.558Z,5.40
2018-08-16T06:37:57.323Z,4.80
2018-08-16T06:40:24.982Z,6.03
2018-08-16T06:42:52.614Z,5.12
2018-08-16T06:45:20.359Z,4.97
2018-08-16T06:47:48.046Z,4.97
2018-08-16T06:50:15.712Z,4.10
2018-08-16T06:52:43.619Z,4.65
2018-08-16T06:55:11.320Z,4.35
2018-08-16T06:57:39.031Z,4.00
2018-08-16T07:00:07.413Z,4.37
2018-08-16T07:02:35.395Z,6.30
2018-08-16T07:05:03.192Z,4.03
2018-08-16T07:07:30.855Z,3.70
2018-08-16T07:09:58.580Z,3.13
2018-08-16T07:12:26.436Z,3.27
2018-08-16T07:14:54.011Z,3.20
2018-08-16T07:17:21.666Z,3.25
2018-08-16T07:19:49.299Z,3.07
2018-08-16T07:22:16.977Z,3.00
2018-08-16T07:24:44.709Z,2.83
2018-08-16T07:27:12.367Z,3.20
2018-08-16T07:29:40.122Z,2.77
2018-08-16T07:32:07.911Z,2.20
2018-08-16T07:34:35.573Z,2.40
2018-08-16T07:37:03.374Z,2.47
2018-08-16T07:39:31.050Z,2.65
2018-08-16T07:41:58.680Z,2.23
2018-08-16T07:44:26.341Z,3.30
2018-08-16T07:46:53.996Z,3.00
2018-08-16T07:49:21.763Z,2.27
2018-08-16T07:51:49.454Z,2.60
2018-08-16T07:54:18.324Z,2.20
2018-08-16T07:56:45.961Z,2.47
2018-08-16T07:59:13.605Z,2.55
2018-08-16T08:01:41.354Z,2.55
2018-08-16T08:04:09.071Z,2.40
2018-08-16T08:06:36.816Z,2.47
2018-08-16T08:09:07.031Z,2.80
2018-08-16T08:11:34.584Z,5.30
2018-08-16T08:14:02.310Z,2.60
2018-08-16T08:16:30.020Z,2.70
2018-08-16T08:18:57.747Z,3.37
2018-08-16T08:21:25.420Z,2.37
2018-08-16T08:23:53.088Z,2.23
2018-08-16T08:26:20.797Z,4.00
2018-08-16T08:28:48.508Z,2.57
2018-08-16T08:31:16.169Z,2.27
2018-08-16T08:33:43.779Z,2.73
2018-08-16T08:36:22.562Z,2.20
2018-08-16T08:38:50.211Z,2.73
2018-08-16T08:41:17.904Z,2.43
2018-08-16T08:43:56.585Z,2.27
2018-08-16T08:46:24.235Z,2.57
2018-08-16T08:48:52.308Z,2.33
2018-08-16T08:51:20.033Z,2.27
2018-08-16T08:55:08.304Z,2.40
2018-08-16T08:57:47.159Z,2.30
2018-08-16T09:00:14.895Z,2.10
2018-08-16T09:02:42.568Z,2.50
2018-08-16T09:05:10.349Z,2.40
2018-08-16T09:07:38.108Z,2.30
2018-08-16T09:11:15.633Z,2.65
2018-08-16T09:14:09.430Z,2.40
2018-08-16T09:16:40.438Z,2.10
2018-08-16T09:19:08.955Z,2.60
2018-08-16T09:21:36.803Z,2.50
2018-08-16T09:24:04.562Z,2.03
2018-08-16T09:26:37.649Z,2.20
2018-08-16T09:29:14.260Z,2.17
2018-08-16T09:31:53.041Z,2.13
2018-08-16T09:34:23.039Z,2.37
2018-08-16T09:36:50.679Z,3.27
2018-08-16T09:39:18.477Z,2.27
2018-08-16T09:41:46.165Z,2.30
2018-08-16T09:44:13.834Z,2.45
2018-08-16T09:47:08.304Z,1.98
2018-08-16T09:49:38.684Z,1.83
2018-08-16T09:52:07.151Z,2.20
2018-08-16T09:54:34.934Z,2.10
2018-08-16T09:57:03.984Z,2.23
2018-08-16T09:59:31.655Z,2.00
2018-08-16T10:01:59.322Z,2.33
2018-08-16T10:04:27.620Z,2.30
2018-08-16T10:06:55.261Z,1.80
2018-08-16T10:09:24.991Z,2.70
2018-08-16T10:11:53.026Z,2.30
2018-08-16T10:14:21.102Z,2.43
2018-08-16T10:16:48.858Z,2.13
2018-08-16T10:19:16.569Z,1.97
2018-08-16T10:21:44.388Z,2.13
2018-08-16T10:24:12.319Z,1.70
2018-08-16T10:26:40.039Z,2.37
2018-08-16T10:29:08.303Z,2.40
2018-08-16T10:31:36.021Z,2.80
2018-08-16T10:34:03.767Z,3.30
2018-08-16T10:36:31.468Z,2.70
2018-08-16T10:38:59.247Z,2.50
2018-08-16T10:41:27.387Z,1.93
2018-08-16T10:43:55.016Z,1.77
2018-08-16T10:46:22.799Z,2.13
2018-08-16T10:48:50.440Z,2.00
2018-08-16T10:51:18.164Z,2.00
2018-08-16T10:53:45.927Z,2.30
2018-08-16T10:56:13.693Z,1.85
2018-08-16T10:58:41.443Z,1.73
2018-08-16T11:01:09.150Z,1.80
2018-08-16T11:03:36.842Z,1.83
2018-08-16T11:06:04.529Z,1.70
2018-08-16T11:08:32.178Z,1.83
2018-08-16T11:10:59.804Z,2.07
2018-08-16T11:13:27.479Z,1.77
2018-08-16T11:15:55.095Z,1.77
2018-08-16T11:18:22.703Z,1.90
2018-08-16T11:20:50.309Z,1.60
2018-08-16T11:23:17.955Z,2.00
2018-08-16T11:25:45.676Z,1.83
2018-08-16T11:28:13.348Z,1.43
2018-08-16T11:30:41.064Z,1.95
2018-08-16T11:33:09.199Z,1.83
2018-08-16T11:35:36.860Z,1.80
2018-08-16T11:38:04.643Z,1.87
2018-08-16T11:40:32.334Z,1.92
2018-08-16T11:42:59.983Z,1.98
2018-08-16T11:45:27.641Z,1.90
2018-08-16T11:47:55.241Z,2.30
2018-08-16T11:50:22.891Z,2.30
2018-08-16T11:52:50.523Z,1.92
2018-08-16T11:55:18.308Z,2.30
2018-08-16T11:57:46.005Z,2.50
2018-08-16T12:00:13.655Z,2.53
2018-08-16T12:02:41.327Z,2.57
2018-08-16T12:05:08.953Z,2.00
2018-08-16T12:07:36.675Z,2.30
2018-08-16T12:10:04.498Z,2.60
2018-08-16T12:12:32.173Z,5.37
2018-08-16T12:14:59.789Z,2.40
2018-08-16T12:17:27.447Z,2.30
2018-08-16T12:19:55.056Z,2.33
2018-08-16T12:22:22.772Z,2.53
2018-08-16T12:24:50.472Z,2.90
2018-08-16T12:27:18.518Z,2.50
2018-08-16T12:29:46.228Z,2.37
2018-08-16T12:32:13.981Z,2.43
2018-08-16T12:34:41.654Z,2.50
2018-08-16T12:37:09.375Z,2.33
2018-08-16T12:39:37.098Z,2.30
2018-08-16T12:42:05.051Z,2.30
2018-08-16T12:44:32.682Z,3.20
2018-08-16T12:47:00.313Z,2.80
2018-08-16T12:49:27.972Z,2.40
2018-08-16T12:51:55.685Z,2.33
2018-08-16T12:54:23.355Z,2.60
2018-08-16T12:56:50.978Z,2.43
2018-08-16T12:59:18.591Z,2.63
2018-08-16T13:01:46.379Z,2.70
2018-08-16T13:04:14.231Z,2.43
2018-08-16T13:06:41.967Z,2.30
2018-08-16T13:09:10.107Z,3.00
2018-08-16T13:11:38.265Z,2.65
2018-08-16T13:14:05.884Z,2.47
2018-08-16T13:16:33.922Z,2.97
2018-08-16T13:19:01.548Z,2.70
2018-08-16T13:21:29.250Z,2.80
2018-08-16T13:23:57.041Z,2.50
2018-08-16T13:26:24.696Z,2.50
2018-08-16T13:28:52.362Z,2.87
2018-08-16T13:31:20.078Z,2.43
2018-08-16T13:33:47.717Z,2.30
2018-08-16T13:36:15.395Z,2.30
2018-08-16T13:38:43.043Z,2.42
2018-08-16T13:41:10.679Z,2.23
2018-08-16T13:43:38.357Z,2.67
2018-08-16T13:46:05.994Z,2.37
2018-08-16T13:48:33.806Z,2.80
2018-08-16T13:51:01.417Z,2.53
2018-08-16T13:53:29.204Z,2.17
2018-08-16T13:55:56.865Z,2.40
2018-08-16T13:58:24.524Z,2.50
2018-08-16T14:00:52.171Z,3.05
2018-08-16T14:03:19.899Z,2.73
2018-08-16T14:05:47.548Z,2.43
2018-08-16T14:08:15.208Z,2.57
2018-08-16T14:10:44.278Z,2.27
2018-08-16T14:13:11.932Z,2.70
2018-08-16T14:15:39.627Z,2.60
2018-08-16T14:18:07.229Z,2.37
2018-08-16T14:20:34.855Z,2.50
2018-08-16T14:23:02.507Z,2.47
2018-08-16T14:25:30.144Z,2.43
2018-08-16T14:27:57.820Z,2.30
2018-08-16T14:30:25.452Z,2.47
2018-08-16T14:32:53.045Z,2.07
2018-08-16T14:35:20.808Z,2.30
2018-08-16T14:37:48.425Z,2.80
2018-08-16T14:40:16.159Z,2.60
2018-08-16T14:42:44.875Z,3.03
2018-08-16T14:45:12.575Z,2.17
2018-08-16T14:47:40.214Z,2.50
2018-08-16T14:50:07.913Z,2.60
2018-08-16T14:52:35.553Z,2.40
2018-08-16T14:55:03.325Z,2.50
2018-08-16T14:57:31.235Z,2.20
2018-08-16T14:59:58.844Z,2.17
2018-08-16T15:02:26.575Z,2.27
2018-08-16T15:04:54.209Z,2.30
2018-08-16T15:07:22.151Z,2.23
2018-08-16T15:09:49.755Z,2.27
2018-08-16T15:12:17.463Z,2.40
2018-08-16T15:14:45.106Z,2.37
2018-08-16T15:17:12.724Z,2.43
2018-08-16T15:19:40.379Z,2.20
2018-08-16T15:22:08.029Z,2.70
2018-08-16T15:24:35.678Z,2.40
2018-08-16T15:27:03.415Z,2.60
2018-08-16T15:29:31.112Z,2.30
2018-08-16T15:31:58.712Z,2.20
2018-08-16T15:34:27.313Z,2.50
2018-08-16T15:36:54.992Z,2.43
2018-08-16T15:39:23.099Z,2.40
2018-08-16T15:41:50.826Z,2.80
2018-08-16T15:44:18.559Z,3.02
2018-08-16T15:46:46.237Z,2.45
2018-08-16T15:49:13.914Z,2.70
2018-08-16T15:51:41.765Z,2.30
2018-08-16T15:54:09.379Z,2.43
2018-08-16T15:56:37.066Z,2.40
2018-08-16T15:59:05.512Z,2.77
2018-08-16T16:01:33.096Z,2.50
2018-08-16T16:04:00.802Z,2.67
2018-08-16T16:06:28.654Z,2.70
2018-08-16T16:08:56.333Z,2.53
2018-08-16T16:11:24.057Z,3.00
2018-08-16T16:13:51.648Z,2.95
2018-08-16T16:16:19.516Z,2.27
2018-08-16T16:18:47.357Z,2.60
2018-08-16T16:21:14.983Z,18.43
2018-08-16T16:23:42.875Z,14.85
2018-08-16T16:26:10.713Z,7.93
2018-08-16T16:28:38.383Z,5.80
2018-08-16T16:31:06.188Z,10.43
2018-08-16T16:33:33.841Z,4.45
2018-08-16T16:36:01.789Z,3.07
2018-08-16T16:38:29.546Z,7.80
2018-08-16T16:40:57.223Z,5.13
2018-08-16T16:43:24.883Z,6.27
2018-08-16T16:45:52.583Z,3.87
2018-08-16T16:48:20.402Z,3.75
2018-08-16T16:50:50.144Z,3.08
2018-08-16T16:53:17.849Z,2.87
2018-08-16T16:55:45.591Z,2.67
2018-08-16T16:58:13.245Z,3.47
2018-08-16T17:00:40.979Z,2.47
2018-08-16T17:03:08.829Z,2.73
2018-08-16T17:05:37.555Z,2.53
2018-08-16T17:08:05.343Z,2.30
2018-08-16T17:10:33.034Z,2.13
2018-08-16T17:13:00.625Z,1.75
2018-08-16T17:15:28.288Z,2.23
2018-08-16T17:17:56.039Z,2.23
2018-08-16T17:20:23.689Z,5.50
2018-08-16T17:22:51.303Z,4.40
2018-08-16T17:25:19.045Z,2.60
2018-08-16T17:27:46.709Z,2.83
2018-08-16T17:30:14.307Z,2.33
2018-08-16T17:32:42.074Z,2.57
2018-08-16T17:35:10.815Z,2.40
2018-08-16T17:37:38.487Z,2.17
2018-08-16T17:40:06.296Z,2.53
2018-08-16T17:42:34.006Z,6.55
2018-08-16T17:45:01.648Z,8.95
2018-08-16T17:47:29.358Z,3.07
2018-08-16T17:49:56.983Z,2.30
2018-08-16T17:52:24.582Z,2.30
2018-08-16T17:54:52.290Z,2.25
2018-08-16T17:57:19.978Z,3.00
2018-08-16T17:59:47.573Z,2.97
2018-08-16T18:02:15.316Z,2.83
2018-08-16T18:04:42.974Z,2.50
2018-08-16T18:07:10.603Z,2.47
2018-08-16T18:09:38.273Z,2.63
2018-08-16T18:12:06.003Z,2.57
2018-08-16T18:14:33.631Z,2.77
2018-08-16T18:17:02.361Z,2.50
2018-08-16T18:19:30.035Z,2.40
2018-08-16T18:21:58.699Z,2.30
2018-08-16T18:24:26.624Z,2.53
2018-08-16T18:26:54.160Z,2.65
2018-08-16T18:29:21.790Z,2.72
2018-08-16T18:31:49.420Z,2.80
2018-08-16T18:34:17.080Z,3.57
2018-08-16T18:36:44.745Z,2.70
2018-08-16T18:39:12.458Z,2.15
2018-08-16T18:41:40.116Z,2.20
2018-08-16T18:44:08.080Z,2.40
2018-08-16T18:46:35.744Z,2.72
2018-08-16T18:49:03.489Z,3.20
2018-08-16T18:51:31.122Z,3.03
2018-08-16T18:53:58.861Z,2.50
2018-08-16T18:56:26.457Z,2.23
2018-08-16T18:58:54.107Z,2.47
2018-08-16T19:01:21.760Z,2.20
2018-08-16T19:03:49.378Z,2.53
2018-08-16T19:06:17.056Z,2.30
2018-08-16T19:08:44.742Z,2.10
2018-08-16T19:11:12.385Z,2.90
2018-08-16T19:13:40.012Z,3.23
2018-08-16T19:16:07.671Z,2.70
2018-08-16T19:18:35.417Z,2.77
2018-08-16T19:21:03.057Z,4.12
2018-08-16T19:23:30.710Z,2.50
2018-08-16T19:25:58.419Z,2.60
2018-08-16T19:28:26.406Z,2.83
2018-08-16T19:30:54.064Z,2.87
2018-08-16T19:33:21.777Z,2.43
2018-08-16T19:35:49.426Z,2.70
2018-08-16T19:38:17.058Z,2.30
2018-08-16T19:40:44.728Z,3.97
2018-08-16T19:43:12.385Z,4.42
2018-08-16T19:45:40.017Z,3.03
2018-08-16T19:48:07.794Z,2.90
2018-08-16T19:50:35.418Z,2.60
2018-08-16T19:53:03.202Z,2.60
2018-08-16T19:55:30.828Z,2.40
2018-08-16T19:57:58.605Z,3.08
2018-08-16T20:00:26.299Z,3.00
2018-08-16T20:02:53.997Z,2.90
2018-08-16T20:05:21.639Z,2.53
2018-08-16T20:07:49.485Z,3.00
2018-08-16T20:10:17.223Z,2.77
2018-08-16T20:12:45.196Z,3.70
2018-08-16T20:15:12.874Z,3.60
2018-08-16T20:17:40.599Z,3.00
2018-08-16T20:20:08.301Z,2.55
2018-08-16T20:22:36.135Z,3.97
2018-08-16T20:25:04.045Z,2.93
2018-08-16T20:27:31.669Z,2.30
2018-08-16T20:29:59.368Z,2.73
2018-08-16T20:32:27.021Z,2.40
2018-08-16T20:34:54.728Z,2.67
2018-08-16T20:37:22.388Z,2.60
2018-08-16T20:39:50.021Z,2.70
2018-08-16T20:42:17.695Z,2.87
2018-08-16T20:44:45.327Z,3.00
2018-08-16T20:47:12.992Z,2.70
2018-08-16T20:49:40.652Z,2.60
2018-08-16T20:52:08.602Z,2.80
2018-08-16T20:54:36.254Z,2.50
2018-08-16T20:57:04.034Z,2.77
2018-08-16T20:59:31.686Z,3.00
2018-08-16T21:01:59.327Z,3.00
2018-08-16T21:04:26.961Z,2.73
2018-08-16T21:06:54.584Z,2.80
2018-08-16T21:09:22.406Z,2.98
2018-08-16T21:11:50.087Z,2.60
2018-08-16T21:14:17.804Z,2.57
2018-08-16T21:16:45.486Z,2.77
2018-08-16T21:19:13.136Z,2.50
2018-08-16T21:21:40.931Z,2.80
2018-08-16T21:24:08.524Z,2.47
2018-08-16T21:26:36.124Z,2.60
2018-08-16T21:29:03.831Z,3.17
2018-08-16T21:31:31.410Z,2.73
2018-08-16T21:33:59.100Z,2.53
2018-08-16T21:36:26.783Z,2.65
2018-08-16T21:38:54.379Z,2.60
2018-08-16T21:41:21.991Z,2.87
2018-08-16T21:43:49.644Z,2.42
2018-08-16T21:46:17.255Z,2.53
2018-08-16T21:48:44.860Z,2.53
2018-08-16T21:51:12.478Z,2.80
2018-08-16T21:53:40.107Z,2.40
2018-08-16T21:56:07.709Z,2.97
2018-08-16T21:58:35.398Z,2.50
2018-08-16T22:01:07.167Z,2.70
2018-08-16T22:03:34.854Z,2.80
2018-08-16T22:06:06.114Z,2.70
2018-08-16T22:08:42.606Z,2.67
2018-08-16T22:11:10.482Z,2.43
2018-08-16T22:13:38.423Z,2.57
2018-08-16T22:16:06.267Z,2.60
2018-08-16T22:18:33.926Z,2.27
2018-08-16T22:21:01.687Z,2.50
2018-08-16T22:23:29.394Z,2.50
2018-08-16T22:25:57.019Z,2.62
2018-08-16T22:28:24.666Z,2.60
2018-08-16T22:30:52.361Z,2.80
2018-08-16T22:33:20.034Z,2.50
2018-08-16T22:35:47.628Z,2.60
2018-08-16T22:38:15.359Z,2.40
2018-08-16T22:40:43.034Z,2.20
2018-08-16T22:43:10.743Z,2.50
2018-08-16T22:45:38.486Z,2.33
2018-08-16T22:48:06.237Z,2.00
2018-08-16T22:50:33.927Z,2.57
2018-08-16T22:53:01.669Z,2.27
2018-08-16T22:55:29.412Z,2.30
2018-08-16T22:57:57.059Z,2.37
2018-08-16T23:00:24.791Z,2.43
2018-08-16T23:02:52.463Z,2.30
2018-08-16T23:05:20.108Z,2.10
2018-08-16T23:07:47.724Z,2.30
2018-08-16T23:10:15.464Z,2.10
2018-08-16T23:12:43.067Z,2.40
2018-08-16T23:15:10.707Z,2.40
2018-08-16T23:17:38.332Z,2.30
2018-08-16T23:20:06.673Z,2.10
2018-08-16T23:22:34.373Z,2.23
2018-08-16T23:25:01.997Z,1.93
2018-08-16T23:27:29.639Z,2.10
2018-08-16T23:29:57.396Z,2.27
2018-08-16T23:32:25.014Z,2.33
2018-08-16T23:34:52.749Z,2.10
2018-08-16T23:37:20.459Z,2.10
2018-08-16T23:39:48.311Z,2.30
2018-08-16T23:42:16.690Z,2.17
2018-08-16T23:44:44.458Z,2.33
2018-08-16T23:47:12.110Z,1.93
2018-08-16T23:49:39.730Z,2.23
2018-08-16T23:52:07.384Z,1.73
2018-08-16T23:54:35.140Z,3.17
2018-08-16T23:57:02.826Z,1.97
2018-08-16T23:59:30.512Z,2.30
